EPZG/IEG METAR and TAF weather

Enter ICAO airport designator
Station Type Date Time Source
EPZG METAR 2020/09/21 05:00 UTC NOAA

EPZG 210500Z 00000KT 9000 BCFG NSC 03/03 Q1019


Station Type Date Time Source
EPZG Decoded METAR 2020/09/21 05:00 UTC NOAA

Zielona Gora, Poland (EPZG) 51-56N 015-32E 192M
Sep 21, 2020 - 01:00 AM EDT / 2020.09.21 0500 UTC
Wind: Calm:0
Visibility: 5 mile(s):0
Weather: patches of fog
Temperature: 37 F (3 C)
Dew Point: 37 F (3 C)
Relative Humidity: 100%
Pressure (altimeter): 30.09 in. Hg (1019 hPa)
ob: EPZG 210500Z 00000KT 9000 BCFG NSC 03/03 Q1019
cycle: 5

Station Type Date Time Source
EPZG TAF 2012/06/28 21:49 UTC NOAA

TAF EPZG 282000Z 2821/2906 VRB02KT CAVOK
TEMPO 2823/2904 5000 BR PROB30 2900/2904 1500 BR BKN005

Example: see airport list